Time;durP1;ratioP1;P1;durP2;ratioP2;P2;SDS_P1;SDS_P2;PMS_P1;PMS_P2;Temp;Humidity;BMP_temperature;BMP_pressure;BME280_temperature;BME280_humidity;BME280_pressure;Samples;Min_cycle;Max_cycle;Signal;HPM_P1;HPM_P2
2022/09/11 00:01:36;;;;;;;16.17;14.70;;;;;;;;;;5069912;28;20231;-48
2022/09/11 00:04:03;;;;;;;15.33;13.93;;;;;;;;;;5070426;28;20756;-48
2022/09/11 00:06:30;;;;;;;15.03;13.60;;;;;;;;;;5070230;28;20204;-47
2022/09/11 00:08:59;;;;;;;15.40;14.00;;;;;;;;;;5070750;28;20196;-47
2022/09/11 00:11:25;;;;;;;46.57;42.20;;;;;;;;;;5069975;28;20258;-47
2022/09/11 00:13:53;;;;;;;22.27;20.20;;;;;;;;;;5069995;28;20287;-47
2022/09/11 00:16:21;;;;;;;15.97;14.53;;;;;;;;;;5070337;28;20205;-48
2022/09/11 00:18:47;;;;;;;17.93;16.27;;;;;;;;;;5070020;28;20203;-49
2022/09/11 00:21:14;;;;;;;15.67;14.20;;;;;;;;;;5070666;28;20195;-48
2022/09/11 00:23:40;;;;;;;16.47;15.03;;;;;;;;;;5069455;28;20230;-48
2022/09/11 00:26:06;;;;;;;16.70;15.17;;;;;;;;;;5069921;28;20227;-48
2022/09/11 00:28:45;;;;;;;15.83;14.53;;;;;;;;;;5070150;28;20567;-50
2022/09/11 00:31:12;;;;;;;16.20;14.70;;;;;;;;;;5069970;28;20251;-48
2022/09/11 00:33:40;;;;;;;17.00;15.53;;;;;;;;;;5069990;28;20245;-48
2022/09/11 00:36:07;;;;;;;21.27;19.40;;;;;;;;;;5070006;28;20273;-48
2022/09/11 00:38:35;;;;;;;18.37;16.77;;;;;;;;;;5069072;28;20567;-48
2022/09/11 00:41:02;;;;;;;15.87;14.47;;;;;;;;;;5069995;28;20203;-48
2022/09/11 00:43:29;;;;;;;15.23;13.93;;;;;;;;;;5069947;28;20211;-48
2022/09/11 00:45:57;;;;;;;17.00;15.50;;;;;;;;;;5070347;28;20199;-48
2022/09/11 00:48:24;;;;;;;16.67;15.17;;;;;;;;;;5070026;28;20204;-48
2022/09/11 00:50:53;;;;;;;16.23;14.73;;;;;;;;;;5069930;28;20653;-48
2022/09/11 00:53:20;;;;;;;16.40;15.00;;;;;;;;;;5070083;28;20204;-48
2022/09/11 00:55:49;;;;;;;15.33;14.03;;;;;;;;;;5070074;28;20202;-48
2022/09/11 00:58:17;;;;;;;16.20;14.80;;;;;;;;;;5069564;28;20195;-48
2022/09/11 01:00:43;;;;;;;18.47;16.77;;;;;;;;;;5066004;28;20227;-48
2022/09/11 01:03:10;;;;;;;17.97;16.30;;;;;;;;;;5070998;28;20231;-48
2022/09/11 01:05:38;;;;;;;16.73;15.30;;;;;;;;;;5072949;28;20312;-48
2022/09/11 01:08:05;;;;;;;17.73;16.20;;;;;;;;;;5072996;28;20722;-48
2022/09/11 01:10:36;;;;;;;17.90;16.03;;;;;;;;;;5073118;28;20199;-48
2022/09/11 01:13:05;;;;;;;27.20;24.67;;;;;;;;;;5073009;28;20246;-48
2022/09/11 01:15:35;;;;;;;20.50;18.50;;;;;;;;;;5073054;28;20202;-48
2022/09/11 01:18:06;;;;;;;22.40;20.27;;;;;;;;;;5073535;28;20572;-48
2022/09/11 01:20:35;;;;;;;24.00;21.70;;;;;;;;;;5073148;28;20196;-48
2022/09/11 01:23:13;;;;;;;23.57;21.27;;;;;;;;;;5073268;28;20327;-48
2022/09/11 01:25:50;;;;;;;25.87;23.33;;;;;;;;;;5073227;28;20211;-48
2022/09/11 01:28:20;;;;;;;26.80;24.17;;;;;;;;;;5073143;28;20765;-48
2022/09/11 01:30:49;;;;;;;25.63;23.00;;;;;;;;;;5073074;28;20224;-48
2022/09/11 01:33:21;;;;;;;26.47;23.63;;;;;;;;;;5072949;28;20195;-48
2022/09/11 01:35:51;;;;;;;25.87;23.17;;;;;;;;;;5073377;28;20545;-48
2022/09/11 01:38:21;;;;;;;22.53;20.23;;;;;;;;;;5073069;28;20206;-48
2022/09/11 01:40:50;;;;;;;26.70;23.30;;;;;;;;;;5073036;28;20192;-48
2022/09/11 01:43:21;;;;;;;26.30;23.67;;;;;;;;;;5072905;28;20195;-48
2022/09/11 01:45:49;;;;;;;23.43;20.73;;;;;;;;;;5072754;28;20575;-48
2022/09/11 01:48:16;;;;;;;25.67;22.77;;;;;;;;;;5072237;28;20256;-48
2022/09/11 01:50:44;;;;;;;29.80;24.33;;;;;;;;;;5072789;28;20227;-48
2022/09/11 01:53:11;;;;;;;32.43;27.33;;;;;;;;;;5072938;28;20234;-48
2022/09/11 01:55:40;;;;;;;46.87;41.87;;;;;;;;;;5072346;28;20195;-48
2022/09/11 01:58:07;;;;;;;34.07;29.17;;;;;;;;;;5072427;28;20210;-48
2022/09/11 02:00:35;;;;;;;27.23;24.33;;;;;;;;;;5072354;28;20234;-48
2022/09/11 02:03:05;;;;;;;27.60;24.80;;;;;;;;;;5072843;28;20203;-48
2022/09/11 02:05:32;;;;;;;31.77;28.47;;;;;;;;;;5072390;28;20187;-48
2022/09/11 02:08:01;;;;;;;28.67;25.57;;;;;;;;;;5072012;28;20221;-48
2022/09/11 02:10:29;;;;;;;29.90;26.67;;;;;;;;;;5072076;28;20191;-48
2022/09/11 02:12:57;;;;;;;32.23;27.70;;;;;;;;;;5071939;28;20207;-48
2022/09/11 02:15:25;;;;;;;30.10;26.50;;;;;;;;;;5071718;28;20200;-48
2022/09/11 02:17:54;;;;;;;27.67;24.60;;;;;;;;;;5072623;28;20199;-48
2022/09/11 02:20:20;;;;;;;27.00;23.97;;;;;;;;;;5072402;28;20252;-48
2022/09/11 02:22:47;;;;;;;30.13;26.20;;;;;;;;;;5067816;28;20232;-48
2022/09/11 02:25:14;;;;;;;33.17;29.00;;;;;;;;;;5072001;28;20228;-48
2022/09/11 02:27:40;;;;;;;31.73;27.57;;;;;;;;;;5072023;28;20318;-48
2022/09/11 02:30:07;;;;;;;31.97;27.67;;;;;;;;;;5072452;28;20700;-49
2022/09/11 02:32:36;;;;;;;37.90;28.83;;;;;;;;;;5071667;28;20219;-49
2022/09/11 02:35:03;;;;;;;33.60;29.23;;;;;;;;;;5071391;28;20203;-48
2022/09/11 02:37:37;;;;;;;32.67;28.33;;;;;;;;;;5071471;28;20564;-49
2022/09/11 02:40:14;;;;;;;37.03;29.80;;;;;;;;;;5071790;28;20222;-48
2022/09/11 02:42:47;;;;;;;34.97;28.07;;;;;;;;;;5071802;28;20245;-48
2022/09/11 02:45:19;;;;;;;42.03;32.53;;;;;;;;;;5071705;28;20715;-48
2022/09/11 02:47:51;;;;;;;44.50;33.07;;;;;;;;;;5071837;28;20202;-48
2022/09/11 02:53:26;;;;;;;46.60;32.63;;;;;;;;;;5071796;28;20197;-48
2022/09/11 02:55:57;;;;;;;41.40;32.47;;;;;;;;;;5071543;28;20283;-48
2022/09/11 02:58:25;;;;;;;42.83;32.60;;;;;;;;;;5071033;28;20199;-48
2022/09/11 03:00:52;;;;;;;48.23;34.73;;;;;;;;;;5071670;28;20627;-48
2022/09/11 03:03:19;;;;;;;41.37;31.57;;;;;;;;;;5071374;28;20226;-48
2022/09/11 03:05:46;;;;;;;40.63;31.87;;;;;;;;;;5071626;28;20298;-48
2022/09/11 03:08:12;;;;;;;41.73;32.83;;;;;;;;;;5070952;28;20215;-48
2022/09/11 03:10:40;;;;;;;40.90;31.97;;;;;;;;;;5071163;28;20300;-48
2022/09/11 03:13:06;;;;;;;32.90;26.57;;;;;;;;;;5071470;28;20234;-48
2022/09/11 03:15:32;;;;;;;31.03;25.10;;;;;;;;;;5071179;28;20685;-48
2022/09/11 03:17:58;;;;;;;34.60;26.60;;;;;;;;;;5071259;28;20213;-48
2022/09/11 03:20:24;;;;;;;36.70;28.47;;;;;;;;;;5071177;28;20196;-48
2022/09/11 03:22:50;;;;;;;33.03;25.37;;;;;;;;;;5071100;28;20245;-48
2022/09/11 03:25:16;;;;;;;32.93;26.97;;;;;;;;;;5070882;28;20649;-48
2022/09/11 03:27:44;;;;;;;34.90;25.27;;;;;;;;;;5070859;28;20290;-48
2022/09/11 03:30:10;;;;;;;33.23;27.13;;;;;;;;;;5071126;28;20210;-48
2022/09/11 03:32:36;;;;;;;32.60;23.97;;;;;;;;;;5071058;28;20228;-48
2022/09/11 03:35:02;;;;;;;33.60;26.97;;;;;;;;;;5071199;28;20222;-48
2022/09/11 03:37:28;;;;;;;30.10;25.20;;;;;;;;;;5070943;28;20204;-48
2022/09/11 03:39:54;;;;;;;32.73;26.77;;;;;;;;;;5070384;28;20283;-48
2022/09/11 03:42:20;;;;;;;32.37;27.40;;;;;;;;;;5070721;28;20195;-48
2022/09/11 03:44:47;;;;;;;30.13;25.93;;;;;;;;;;5071084;28;20353;-48
2022/09/11 03:47:13;;;;;;;27.70;24.13;;;;;;;;;;5070889;28;20678;-48
2022/09/11 03:49:39;;;;;;;30.20;25.77;;;;;;;;;;5070846;28;20192;-48
2022/09/11 03:52:05;;;;;;;27.83;24.60;;;;;;;;;;5070867;28;20273;-48
2022/09/11 03:54:31;;;;;;;27.97;24.07;;;;;;;;;;5070765;28;20200;-48
2022/09/11 03:56:57;;;;;;;25.23;22.37;;;;;;;;;;5070797;28;20771;-48
2022/09/11 03:59:24;;;;;;;26.43;22.60;;;;;;;;;;5070586;28;20195;-48
2022/09/11 04:01:51;;;;;;;31.33;26.33;;;;;;;;;;5070946;28;20214;-48
2022/09/11 04:04:17;;;;;;;27.80;24.67;;;;;;;;;;5070706;28;20204;-48
2022/09/11 04:06:43;;;;;;;28.10;23.60;;;;;;;;;;5070024;28;20600;-48
2022/09/11 04:09:09;;;;;;;26.37;23.47;;;;;;;;;;5070843;28;20195;-48
2022/09/11 04:11:37;;;;;;;27.83;23.57;;;;;;;;;;5070727;28;20673;-48
2022/09/11 04:14:04;;;;;;;26.53;23.23;;;;;;;;;;5070119;28;20196;-48
2022/09/11 04:16:34;;;;;;;25.17;22.47;;;;;;;;;;5069736;28;20203;-47
2022/09/11 04:19:02;;;;;;;29.00;23.63;;;;;;;;;;5070751;28;20267;-48
2022/09/11 04:21:28;;;;;;;25.53;22.80;;;;;;;;;;5070594;28;20188;-48
2022/09/11 04:23:59;;;;;;;25.37;22.67;;;;;;;;;;5070647;28;20238;-48
2022/09/11 04:26:25;;;;;;;28.57;24.10;;;;;;;;;;5070706;28;20537;-48
2022/09/11 04:28:51;;;;;;;25.87;23.17;;;;;;;;;;5070538;28;20234;-48
2022/09/11 04:31:18;;;;;;;27.43;23.23;;;;;;;;;;5070549;28;20265;-48
2022/09/11 04:33:44;;;;;;;29.43;23.40;;;;;;;;;;5070597;28;20278;-48
2022/09/11 04:36:12;;;;;;;27.47;23.33;;;;;;;;;;5070553;28;20196;-47
2022/09/11 04:38:42;;;;;;;26.10;23.30;;;;;;;;;;5073801;28;20203;-49
2022/09/11 04:41:08;;;;;;;24.73;22.07;;;;;;;;;;5074205;28;20187;-48
2022/09/11 04:43:35;;;;;;;32.03;25.83;;;;;;;;;;5074393;28;20650;-48
2022/09/11 04:46:01;;;;;;;27.60;23.23;;;;;;;;;;5074292;28;20221;-48
2022/09/11 04:48:27;;;;;;;25.87;22.70;;;;;;;;;;5073966;28;20286;-48
2022/09/11 04:50:58;;;;;;;28.80;24.27;;;;;;;;;;5074088;28;20226;-49
2022/09/11 04:53:25;;;;;;;25.40;22.20;;;;;;;;;;5074028;28;20649;-48
2022/09/11 04:55:51;;;;;;;30.50;24.90;;;;;;;;;;5074314;28;20204;-48
2022/09/11 04:58:17;;;;;;;24.63;21.63;;;;;;;;;;5073778;28;20249;-48
2022/09/11 05:00:43;;;;;;;24.63;22.00;;;;;;;;;;5073609;28;20240;-48
2022/09/11 05:03:10;;;;;;;27.17;22.47;;;;;;;;;;5074158;28;20195;-48
2022/09/11 05:05:36;;;;;;;24.43;21.73;;;;;;;;;;5073552;28;20199;-48
2022/09/11 05:08:02;;;;;;;24.23;20.77;;;;;;;;;;5073540;28;20230;-48
2022/09/11 05:10:30;;;;;;;25.00;22.13;;;;;;;;;;5073687;28;20200;-48
2022/09/11 05:12:56;;;;;;;26.93;22.63;;;;;;;;;;5073615;28;20239;-48
2022/09/11 05:15:22;;;;;;;24.27;20.50;;;;;;;;;;5073379;28;20195;-48
2022/09/11 05:17:49;;;;;;;28.87;22.70;;;;;;;;;;5073633;28;20278;-48
2022/09/11 05:20:15;;;;;;;30.10;22.90;;;;;;;;;;5073546;28;20195;-48
2022/09/11 05:22:41;;;;;;;31.30;25.13;;;;;;;;;;5073475;28;20282;-48
2022/09/11 05:25:08;;;;;;;28.97;22.97;;;;;;;;;;5073307;28;20653;-48
2022/09/11 05:27:35;;;;;;;27.90;22.60;;;;;;;;;;5073553;28;20207;-48
2022/09/11 05:30:01;;;;;;;27.53;21.40;;;;;;;;;;5073207;28;20215;-48
2022/09/11 05:32:27;;;;;;;30.47;25.50;;;;;;;;;;5072843;28;20227;-48
2022/09/11 05:34:53;;;;;;;28.53;22.90;;;;;;;;;;5073196;28;20274;-48
2022/09/11 05:37:19;;;;;;;29.47;22.90;;;;;;;;;;5073169;28;20546;-48
2022/09/11 05:39:45;;;;;;;26.37;21.10;;;;;;;;;;5073246;28;20199;-48
2022/09/11 05:42:11;;;;;;;28.07;21.50;;;;;;;;;;5072990;28;20245;-48
2022/09/11 05:44:39;;;;;;;24.33;19.27;;;;;;;;;;5073061;28;20210;-48
2022/09/11 05:47:05;;;;;;;26.10;19.23;;;;;;;;;;5073056;28;20678;-48
2022/09/11 05:49:31;;;;;;;24.60;18.70;;;;;;;;;;5072990;28;20704;-48
2022/09/11 05:51:57;;;;;;;23.63;19.77;;;;;;;;;;5072768;28;20259;-48
2022/09/11 05:54:23;;;;;;;27.57;20.93;;;;;;;;;;5073024;28;20202;-48
2022/09/11 05:56:49;;;;;;;27.37;20.77;;;;;;;;;;5073018;28;20631;-48
2022/09/11 05:59:16;;;;;;;29.63;21.83;;;;;;;;;;5073326;28;20203;-48
2022/09/11 06:01:43;;;;;;;28.80;20.60;;;;;;;;;;5072002;28;20235;-47
2022/09/11 06:04:10;;;;;;;23.90;18.70;;;;;;;;;;5072624;28;20204;-47
2022/09/11 06:06:36;;;;;;;25.17;18.73;;;;;;;;;;5072777;28;20208;-47
2022/09/11 06:09:02;;;;;;;23.50;19.57;;;;;;;;;;5071453;28;20257;-47
2022/09/11 06:11:28;;;;;;;21.40;17.63;;;;;;;;;;5072050;28;20223;-47
2022/09/11 06:13:54;;;;;;;26.07;20.70;;;;;;;;;;5071516;28;20260;-47
2022/09/11 06:16:22;;;;;;;23.83;19.10;;;;;;;;;;5071812;28;20230;-48
2022/09/11 06:18:50;;;;;;;24.43;19.57;;;;;;;;;;5068615;28;20199;-47
2022/09/11 06:21:18;;;;;;;23.90;19.43;;;;;;;;;;5071798;28;20199;-47
2022/09/11 06:23:44;;;;;;;24.03;20.90;;;;;;;;;;5071022;28;20260;-47
2022/09/11 06:26:11;;;;;;;26.70;19.27;;;;;;;;;;5070967;28;20363;-48
2022/09/11 06:28:38;;;;;;;30.47;22.33;;;;;;;;;;5072505;28;20227;-47
2022/09/11 06:31:05;;;;;;;24.67;19.87;;;;;;;;;;5071836;28;20572;-48
2022/09/11 06:33:32;;;;;;;28.57;20.97;;;;;;;;;;5071880;28;20247;-47
2022/09/11 06:36:00;;;;;;;27.57;20.93;;;;;;;;;;5070988;28;20208;-47
2022/09/11 06:38:27;;;;;;;25.30;20.10;;;;;;;;;;5071881;28;20201;-47
2022/09/11 06:40:53;;;;;;;24.50;19.50;;;;;;;;;;5072035;28;20229;-47
2022/09/11 06:43:19;;;;;;;24.67;18.67;;;;;;;;;;5071879;28;20201;-48
2022/09/11 06:45:47;;;;;;;25.27;18.63;;;;;;;;;;5071567;28;20253;-48
2022/09/11 06:48:13;;;;;;;26.57;18.07;;;;;;;;;;5071848;28;20204;-47
2022/09/11 06:50:39;;;;;;;25.53;18.17;;;;;;;;;;5071072;28;21044;-47
2022/09/11 06:53:07;;;;;;;19.63;15.30;;;;;;;;;;5070348;28;20289;-48
2022/09/11 06:55:33;;;;;;;23.90;17.53;;;;;;;;;;5070332;28;20199;-48
2022/09/11 06:58:01;;;;;;;26.17;17.37;;;;;;;;;;5071218;28;20204;-48
2022/09/11 07:00:27;;;;;;;24.57;16.47;;;;;;;;;;5068401;28;20607;-48
2022/09/11 07:02:53;;;;;;;28.47;17.60;;;;;;;;;;5068826;28;20218;-48
2022/09/11 07:05:21;;;;;;;23.77;16.93;;;;;;;;;;5071309;28;20604;-48
2022/09/11 07:07:47;;;;;;;23.77;17.13;;;;;;;;;;5070414;28;20223;-49
2022/09/11 07:10:14;;;;;;;26.57;19.07;;;;;;;;;;5070940;28;20316;-49
2022/09/11 07:12:40;;;;;;;19.93;16.13;;;;;;;;;;5070311;28;20231;-48
2022/09/11 07:15:07;;;;;;;26.13;18.20;;;;;;;;;;5070454;28;20195;-48
2022/09/11 07:17:33;;;;;;;22.37;16.23;;;;;;;;;;5071124;28;20287;-49
2022/09/11 07:19:59;;;;;;;25.77;19.07;;;;;;;;;;5071227;28;20642;-49
2022/09/11 07:22:25;;;;;;;28.90;20.40;;;;;;;;;;5071209;28;20278;-49
2022/09/11 07:24:53;;;;;;;28.10;19.80;;;;;;;;;;5071031;28;20284;-49
2022/09/11 07:27:21;;;;;;;26.90;18.70;;;;;;;;;;5071002;28;20199;-48
2022/09/11 07:29:47;;;;;;;24.23;18.30;;;;;;;;;;5072497;28;20266;-49
2022/09/11 07:32:13;;;;;;;22.90;18.03;;;;;;;;;;5071159;28;20224;-48
2022/09/11 07:34:39;;;;;;;24.50;16.97;;;;;;;;;;5070539;28;20276;-48
2022/09/11 07:37:05;;;;;;;22.77;17.63;;;;;;;;;;5070669;28;20530;-47
2022/09/11 07:39:32;;;;;;;21.80;15.83;;;;;;;;;;5070631;28;20195;-48
2022/09/11 07:41:58;;;;;;;24.40;18.93;;;;;;;;;;5066687;28;20196;-47
2022/09/11 07:44:25;;;;;;;27.00;18.57;;;;;;;;;;5070117;28;20204;-47
2022/09/11 07:46:51;;;;;;;23.83;18.33;;;;;;;;;;5068924;28;20200;-47
2022/09/11 07:49:18;;;;;;;23.60;17.47;;;;;;;;;;5067807;28;20210;-47
2022/09/11 07:51:44;;;;;;;28.73;20.13;;;;;;;;;;5067178;28;20685;-47
2022/09/11 07:54:10;;;;;;;28.73;19.90;;;;;;;;;;5070881;28;20230;-48
2022/09/11 07:56:36;;;;;;;27.30;19.17;;;;;;;;;;5070920;28;20202;-47
2022/09/11 07:59:06;;;;;;;24.20;18.43;;;;;;;;;;5071042;28;20199;-47
2022/09/11 08:01:34;;;;;;;27.60;19.40;;;;;;;;;;5070991;28;20309;-47
2022/09/11 08:04:01;;;;;;;28.17;20.30;;;;;;;;;;5071021;28;20739;-47
2022/09/11 08:06:28;;;;;;;28.67;19.57;;;;;;;;;;5070945;28;20230;-47
2022/09/11 08:08:55;;;;;;;25.47;18.90;;;;;;;;;;5071039;28;20203;-47
2022/09/11 08:11:21;;;;;;;31.37;21.23;;;;;;;;;;5070895;28;20234;-47
2022/09/11 08:13:49;;;;;;;28.93;18.73;;;;;;;;;;5074758;28;20210;-47
2022/09/11 08:16:15;;;;;;;27.13;20.47;;;;;;;;;;5075100;28;20195;-47
2022/09/11 08:18:44;;;;;;;27.17;19.90;;;;;;;;;;5075189;28;20199;-47
2022/09/11 08:21:10;;;;;;;26.77;19.37;;;;;;;;;;5073391;28;20222;-47
2022/09/11 08:23:39;;;;;;;27.90;19.60;;;;;;;;;;5074897;28;20278;-47
2022/09/11 08:26:05;;;;;;;32.07;23.70;;;;;;;;;;5074337;28;20199;-47
2022/09/11 08:28:32;;;;;;;26.70;21.03;;;;;;;;;;5074482;28;20256;-47
2022/09/11 08:30:58;;;;;;;27.93;19.63;;;;;;;;;;5074705;28;20206;-47
2022/09/11 08:33:24;;;;;;;32.97;21.53;;;;;;;;;;5074096;28;20286;-47
2022/09/11 08:35:51;;;;;;;33.53;21.20;;;;;;;;;;5074462;28;20298;-47
2022/09/11 08:38:17;;;;;;;29.37;20.30;;;;;;;;;;5074539;28;20204;-46
2022/09/11 08:40:44;;;;;;;27.73;19.57;;;;;;;;;;5074585;28;20194;-47
2022/09/11 08:43:14;;;;;;;26.63;19.40;;;;;;;;;;5074566;28;20229;-48
2022/09/11 08:45:40;;;;;;;26.13;17.97;;;;;;;;;;5074624;28;20195;-47
2022/09/11 08:48:08;;;;;;;24.00;17.47;;;;;;;;;;5074357;28;20258;-47
2022/09/11 08:50:35;;;;;;;25.90;18.50;;;;;;;;;;5074175;28;20611;-47
2022/09/11 08:53:03;;;;;;;31.20;23.17;;;;;;;;;;5074254;28;20310;-47
2022/09/11 08:55:32;;;;;;;30.50;18.20;;;;;;;;;;5074201;28;20222;-47
2022/09/11 08:58:02;;;;;;;24.07;16.90;;;;;;;;;;5074234;28;20340;-47
2022/09/11 09:00:32;;;;;;;18.63;14.00;;;;;;;;;;5073946;28;20244;-47
2022/09/11 09:03:19;;;;;;;21.57;15.63;;;;;;;;;;5074234;28;20191;-47
2022/09/11 09:05:49;;;;;;;19.20;14.27;;;;;;;;;;5074152;28;20696;-47
2022/09/11 09:08:24;;;;;;;17.03;13.00;;;;;;;;;;5074142;28;20216;-47
2022/09/11 09:10:52;;;;;;;18.87;12.37;;;;;;;;;;5073867;28;20262;-47
2022/09/11 09:13:24;;;;;;;15.43;12.30;;;;;;;;;;5069347;28;20262;-47
2022/09/11 09:15:53;;;;;;;15.60;12.43;;;;;;;;;;5069870;28;20268;-47
2022/09/11 09:18:24;;;;;;;15.43;12.27;;;;;;;;;;5072525;28;20200;-47
2022/09/11 09:20:56;;;;;;;17.33;13.40;;;;;;;;;;5072980;28;20199;-47
2022/09/11 09:23:25;;;;;;;15.87;12.13;;;;;;;;;;5071899;28;20630;-47
2022/09/11 09:25:52;;;;;;;15.57;12.00;;;;;;;;;;5073047;28;20211;-47
2022/09/11 09:28:19;;;;;;;15.30;12.30;;;;;;;;;;5073092;28;20300;-48
2022/09/11 09:30:49;;;;;;;14.80;11.30;;;;;;;;;;5072963;28;20192;-48
2022/09/11 09:33:24;;;;;;;13.47;10.80;;;;;;;;;;5072717;28;20233;-48
2022/09/11 09:35:51;;;;;;;12.83;11.43;;;;;;;;;;5072462;28;20202;-48
2022/09/11 09:38:24;;;;;;;13.90;11.30;;;;;;;;;;5072214;28;20304;-48
2022/09/11 09:40:54;;;;;;;16.43;12.53;;;;;;;;;;5072824;28;20686;-47
2022/09/11 09:43:28;;;;;;;19.60;13.10;;;;;;;;;;5073219;28;20240;-47
2022/09/11 09:46:03;;;;;;;24.83;20.00;;;;;;;;;;5073175;28;20201;-47
2022/09/11 09:48:32;;;;;;;19.10;14.00;;;;;;;;;;5072644;28;20678;-48
2022/09/11 09:50:58;;;;;;;18.13;13.30;;;;;;;;;;5073038;28;20572;-47
2022/09/11 09:53:28;;;;;;;17.10;14.10;;;;;;;;;;5072634;28;20223;-48
2022/09/11 09:55:58;;;;;;;15.83;13.07;;;;;;;;;;5072759;28;20199;-48
2022/09/11 09:58:25;;;;;;;17.03;12.70;;;;;;;;;;5072696;28;20231;-48
2022/09/11 10:00:51;;;;;;;13.80;11.23;;;;;;;;;;5072638;28;20659;-48
2022/09/11 10:03:18;;;;;;;15.50;11.77;;;;;;;;;;5072498;28;20225;-48
2022/09/11 10:05:45;;;;;;;13.97;11.43;;;;;;;;;;5072229;28;20626;-48
2022/09/11 10:08:25;;;;;;;15.37;12.40;;;;;;;;;;5072280;28;20216;-47
2022/09/11 10:10:56;;;;;;;15.70;12.20;;;;;;;;;;5072473;28;20209;-48
2022/09/11 10:13:24;;;;;;;14.97;12.17;;;;;;;;;;5071882;28;20225;-48
2022/09/11 10:15:51;;;;;;;13.37;9.80;;;;;;;;;;5072337;28;20279;-48
2022/09/11 10:18:36;;;;;;;15.47;11.37;;;;;;;;;;5072420;28;20205;-47
2022/09/11 10:21:32;;;;;;;15.47;11.03;;;;;;;;;;5072328;28;20208;-48
2022/09/11 10:23:59;;;;;;;12.73;11.30;;;;;;;;;;5037350;28;20817;-48
2022/09/11 10:26:27;;;;;;;12.13;9.13;;;;;;;;;;5072163;28;20260;-48
2022/09/11 10:28:56;;;;;;;10.97;9.37;;;;;;;;;;5072079;28;20207;-48
2022/09/11 10:31:22;;;;;;;10.60;8.93;;;;;;;;;;5071646;28;20203;-48
2022/09/11 10:33:51;;;;;;;9.27;8.37;;;;;;;;;;5071889;28;20605;-48
2022/09/11 10:36:21;;;;;;;9.37;8.40;;;;;;;;;;5070945;28;20202;-48
2022/09/11 10:38:47;;;;;;;9.30;8.40;;;;;;;;;;5071792;28;20200;-48
2022/09/11 10:41:17;;;;;;;7.67;6.87;;;;;;;;;;5071974;28;20538;-47
2022/09/11 10:43:46;;;;;;;7.40;6.70;;;;;;;;;;5071523;28;20206;-48
2022/09/11 10:46:27;;;;;;;8.07;7.20;;;;;;;;;;5071771;28;20206;-47
2022/09/11 10:48:55;;;;;;;8.83;7.93;;;;;;;;;;5071716;28;20558;-47
2022/09/11 10:51:21;;;;;;;8.30;7.20;;;;;;;;;;5071524;28;20249;-47
2022/09/11 10:53:53;;;;;;;7.73;6.93;;;;;;;;;;5071095;28;20206;-48
2022/09/11 10:56:19;;;;;;;10.13;9.13;;;;;;;;;;5071372;28;20198;-49
2022/09/11 10:58:47;;;;;;;9.70;8.80;;;;;;;;;;5070360;28;20194;-48
2022/09/11 11:01:14;;;;;;;12.43;8.93;;;;;;;;;;5071189;28;20320;-47
2022/09/11 11:03:41;;;;;;;9.67;8.67;;;;;;;;;;5071266;28;20203;-47
2022/09/11 11:06:13;;;;;;;10.27;9.27;;;;;;;;;;5069223;28;20665;-47
2022/09/11 11:08:49;;;;;;;10.90;9.47;;;;;;;;;;5070504;28;20224;-47
2022/09/11 11:11:25;;;;;;;10.03;9.07;;;;;;;;;;5068899;28;20213;-47
2022/09/11 11:14:03;;;;;;;9.40;8.47;;;;;;;;;;5068513;28;20205;-47
2022/09/11 11:16:33;;;;;;;9.90;8.87;;;;;;;;;;5067227;28;20204;-47
2022/09/11 11:19:07;;;;;;;9.00;8.00;;;;;;;;;;5071496;28;20205;-47
2022/09/11 11:21:40;;;;;;;8.47;7.67;;;;;;;;;;5068898;28;20205;-47
2022/09/11 11:24:14;;;;;;;8.80;7.93;;;;;;;;;;5068704;28;20632;-47
2022/09/11 11:26:44;;;;;;;8.60;7.80;;;;;;;;;;5070526;28;20559;-47
2022/09/11 11:29:21;;;;;;;7.17;6.47;;;;;;;;;;5071153;28;20265;-47
2022/09/11 11:31:57;;;;;;;8.37;7.57;;;;;;;;;;5070972;28;20229;-47
2022/09/11 11:34:32;;;;;;;8.33;7.53;;;;;;;;;;5069185;28;20261;-47
2022/09/11 11:37:00;;;;;;;9.07;8.07;;;;;;;;;;5071225;28;20206;-47
2022/09/11 11:39:29;;;;;;;7.97;7.03;;;;;;;;;;5070742;28;20277;-49
2022/09/11 11:42:02;;;;;;;9.20;7.53;;;;;;;;;;5070999;28;20191;-47
2022/09/11 11:44:31;;;;;;;7.70;6.40;;;;;;;;;;5070909;28;20201;-47
2022/09/11 11:47:00;;;;;;;6.87;6.13;;;;;;;;;;5070789;28;20219;-47
2022/09/11 11:49:34;;;;;;;7.43;6.63;;;;;;;;;;5070386;28;20199;-48
2022/09/11 11:52:02;;;;;;;7.03;6.30;;;;;;;;;;5070464;28;20582;-48
2022/09/11 11:54:32;;;;;;;7.43;6.63;;;;;;;;;;5070126;28;20208;-47
2022/09/11 11:57:01;;;;;;;7.10;6.40;;;;;;;;;;5068380;28;20195;-48
2022/09/11 11:59:31;;;;;;;7.30;6.57;;;;;;;;;;5070237;28;20206;-48
2022/09/11 12:02:01;;;;;;;6.57;5.90;;;;;;;;;;5070704;28;20194;-47
2022/09/11 12:04:33;;;;;;;5.30;4.80;;;;;;;;;;5070397;28;20264;-48
2022/09/11 12:07:01;;;;;;;4.77;3.97;;;;;;;;;;5070589;28;20226;-48
2022/09/11 12:09:30;;;;;;;6.77;3.77;;;;;;;;;;5065636;28;20203;-48
2022/09/11 12:11:59;;;;;;;3.77;3.40;;;;;;;;;;5068590;28;20226;-48
2022/09/11 12:14:27;;;;;;;7.00;5.40;;;;;;;;;;5069798;28;20195;-48
2022/09/11 12:16:54;;;;;;;5.50;4.40;;;;;;;;;;5070168;28;20589;-49
2022/09/11 12:19:21;;;;;;;5.57;4.10;;;;;;;;;;5070491;28;20192;-48
2022/09/11 12:22:06;;;;;;;4.70;3.43;;;;;;;;;;5070198;28;20219;-48
2022/09/11 12:24:53;;;;;;;4.33;3.93;;;;;;;;;;5070475;28;20188;-48
2022/09/11 12:27:49;;;;;;;6.30;3.80;;;;;;;;;;5070222;28;20204;-48
2022/09/11 12:30:20;;;;;;;4.20;3.80;;;;;;;;;;5070642;28;20358;-48
2022/09/11 12:32:46;;;;;;;3.87;3.30;;;;;;;;;;5070647;28;20226;-48
2022/09/11 12:35:18;;;;;;;4.07;3.40;;;;;;;;;;5070682;28;20200;-48
2022/09/11 12:37:47;;;;;;;3.40;3.00;;;;;;;;;;5068423;28;20658;-48
2022/09/11 12:40:17;;;;;;;5.67;3.13;;;;;;;;;;5069889;28;20196;-48
2022/09/11 12:42:54;;;;;;;3.90;3.47;;;;;;;;;;5070124;28;20215;-48
2022/09/11 12:45:31;;;;;;;3.33;3.03;;;;;;;;;;5069900;28;20206;-48
2022/09/11 12:48:02;;;;;;;4.53;3.30;;;;;;;;;;5067674;28;20195;-48
2022/09/11 12:50:28;;;;;;;3.33;3.03;;;;;;;;;;5070252;28;20692;-48
2022/09/11 12:53:00;;;;;;;4.40;3.70;;;;;;;;;;5070174;28;20322;-48
2022/09/11 12:55:32;;;;;;;4.00;3.17;;;;;;;;;;5070197;28;20197;-48
2022/09/11 12:58:01;;;;;;;4.20;3.10;;;;;;;;;;5070750;28;20212;-47
2022/09/11 13:00:30;;;;;;;4.00;3.60;;;;;;;;;;5073311;28;20237;-48
2022/09/11 13:02:58;;;;;;;3.90;3.50;;;;;;;;;;5073076;28;20261;-48
2022/09/11 13:05:26;;;;;;;3.10;2.80;;;;;;;;;;5073295;28;20190;-47
2022/09/11 13:07:53;;;;;;;3.60;3.30;;;;;;;;;;5072812;28;20239;-48
2022/09/11 13:10:25;;;;;;;3.20;2.90;;;;;;;;;;5072921;28;20195;-48
2022/09/11 13:12:54;;;;;;;3.57;3.03;;;;;;;;;;5071795;28;20689;-48
2022/09/11 13:15:31;;;;;;;3.13;2.77;;;;;;;;;;5072915;28;20314;-48
2022/09/11 13:17:57;;;;;;;3.57;2.83;;;;;;;;;;5073612;28;20206;-49
2022/09/11 13:20:23;;;;;;;3.63;3.33;;;;;;;;;;5073352;28;20202;-48
2022/09/11 13:22:50;;;;;;;3.93;3.53;;;;;;;;;;5072982;28;20245;-46
2022/09/11 13:25:17;;;;;;;4.20;3.10;;;;;;;;;;5071378;28;20245;-48
2022/09/11 13:27:45;;;;;;;3.43;3.10;;;;;;;;;;5063014;28;20199;-48
2022/09/11 13:30:13;;;;;;;3.73;3.40;;;;;;;;;;5061301;28;20192;-48
2022/09/11 13:32:39;;;;;;;3.80;3.40;;;;;;;;;;5061860;28;20303;-47
2022/09/11 13:35:09;;;;;;;4.10;3.23;;;;;;;;;;5062966;28;20264;-49
2022/09/11 13:37:37;;;;;;;2.70;2.37;;;;;;;;;;5061793;28;20204;-48
2022/09/11 13:40:04;;;;;;;3.27;2.80;;;;;;;;;;5061024;28;20678;-47
2022/09/11 13:42:31;;;;;;;3.23;2.97;;;;;;;;;;5061001;28;20536;-46
2022/09/11 13:44:59;;;;;;;3.33;3.03;;;;;;;;;;5062038;28;20197;-46
2022/09/11 13:47:27;;;;;;;4.00;3.60;;;;;;;;;;5061620;28;20295;-47
2022/09/11 13:49:55;;;;;;;4.20;3.60;;;;;;;;;;5061225;28;20209;-48
2022/09/11 13:52:22;;;;;;;3.60;3.30;;;;;;;;;;5061269;28;20219;-48
2022/09/11 13:54:49;;;;;;;3.53;2.90;;;;;;;;;;5062640;28;20199;-48
2022/09/11 13:57:16;;;;;;;3.97;3.67;;;;;;;;;;5067274;28;20202;-48
2022/09/11 13:59:53;;;;;;;4.03;3.50;;;;;;;;;;5069579;28;20269;-48
2022/09/11 14:02:42;;;;;;;5.17;3.80;;;;;;;;;;5072030;28;20218;-48
2022/09/11 14:05:13;;;;;;;4.90;4.07;;;;;;;;;;5072236;28;20273;-48
2022/09/11 14:07:55;;;;;;;3.03;2.77;;;;;;;;;;5072159;28;20743;-48
2022/09/11 14:10:23;;;;;;;4.00;3.70;;;;;;;;;;5070873;28;20828;-48
2022/09/11 14:12:54;;;;;;;3.50;3.20;;;;;;;;;;5072404;28;20230;-48
2022/09/11 14:15:30;;;;;;;5.10;3.37;;;;;;;;;;5072228;28;20277;-47
2022/09/11 14:17:56;;;;;;;4.60;3.60;;;;;;;;;;5072056;28;20241;-47
2022/09/11 14:20:23;;;;;;;4.10;3.40;;;;;;;;;;5072153;28;20218;-47
2022/09/11 14:22:52;;;;;;;4.17;3.77;;;;;;;;;;5072170;28;20696;-47
2022/09/11 14:25:20;;;;;;;3.97;3.67;;;;;;;;;;5070390;28;20232;-47
2022/09/11 14:27:47;;;;;;;3.40;3.10;;;;;;;;;;5071718;28;20199;-48
2022/09/11 14:30:32;;;;;;;3.63;3.30;;;;;;;;;;5072156;28;20206;-48
2022/09/11 14:33:06;;;;;;;3.47;3.13;;;;;;;;;;5070232;28;20234;-48
2022/09/11 14:35:35;;;;;;;3.40;3.20;;;;;;;;;;5072034;28;20207;-48